sensor_id;sensor_type;location;lat;lon;timestamp;temperature;humidity
7046;DHT22;3564;53.326;10.356;2023-07-28T00:00:14;19.90;99.90
7046;DHT22;3564;53.326;10.356;2023-07-28T00:02:40;20.00;99.90
7046;DHT22;3564;53.326;10.356;2023-07-28T00:05:09;20.00;99.90
7046;DHT22;3564;53.326;10.356;2023-07-28T00:07:34;20.00;99.90
7046;DHT22;3564;53.326;10.356;2023-07-28T00:10:02;20.00;99.90
7046;DHT22;3564;53.326;10.356;2023-07-28T00:12:34;19.90;99.90
7046;DHT22;3564;53.326;10.356;2023-07-28T00:14:59;19.90;99.90
7046;DHT22;3564;53.326;10.356;2023-07-28T00:17:25;20.00;99.90
7046;DHT22;3564;53.326;10.356;2023-07-28T00:19:51;20.00;99.90
7046;DHT22;3564;53.326;10.356;2023-07-28T00:22:16;20.00;99.90
7046;DHT22;3564;53.326;10.356;2023-07-28T00:24:42;20.00;99.90
7046;DHT22;3564;53.326;10.356;2023-07-28T00:27:07;20.00;99.90
7046;DHT22;3564;53.326;10.356;2023-07-28T00:29:36;20.00;99.90
7046;DHT22;3564;53.326;10.356;2023-07-28T00:32:04;19.90;99.90
7046;DHT22;3564;53.326;10.356;2023-07-28T00:34:30;20.00;99.90
7046;DHT22;3564;53.326;10.356;2023-07-28T00:36:55;20.00;99.90
7046;DHT22;3564;53.326;10.356;2023-07-28T00:39:21;20.00;99.90
7046;DHT22;3564;53.326;10.356;2023-07-28T00:41:46;20.00;99.90
7046;DHT22;3564;53.326;10.356;2023-07-28T00:44:12;20.00;99.90
7046;DHT22;3564;53.326;10.356;2023-07-28T00:46:40;20.00;99.90
7046;DHT22;3564;53.326;10.356;2023-07-28T00:49:05;20.00;99.90
7046;DHT22;3564;53.326;10.356;2023-07-28T00:51:31;20.00;99.90
7046;DHT22;3564;53.326;10.356;2023-07-28T00:53:57;20.00;99.90
7046;DHT22;3564;53.326;10.356;2023-07-28T00:56:25;20.00;99.90
7046;DHT22;3564;53.326;10.356;2023-07-28T00:58:51;20.00;99.90
7046;DHT22;3564;53.326;10.356;2023-07-28T01:01:16;20.00;99.90
7046;DHT22;3564;53.326;10.356;2023-07-28T01:03:42;20.00;99.90
7046;DHT22;3564;53.326;10.356;2023-07-28T01:09:09;20.00;99.90
7046;DHT22;3564;53.326;10.356;2023-07-28T01:11:37;20.00;99.90
7046;DHT22;3564;53.326;10.356;2023-07-28T01:14:03;20.00;99.90
7046;DHT22;3564;53.326;10.356;2023-07-28T01:16:28;20.00;99.90
7046;DHT22;3564;53.326;10.356;2023-07-28T01:18:54;20.00;99.90
7046;DHT22;3564;53.326;10.356;2023-07-28T01:21:26;20.00;99.90
7046;DHT22;3564;53.326;10.356;2023-07-28T01:24:01;20.00;99.90
7046;DHT22;3564;53.326;10.356;2023-07-28T01:26:40;20.00;99.90
7046;DHT22;3564;53.326;10.356;2023-07-28T01:29:06;20.00;99.90
7046;DHT22;3564;53.326;10.356;2023-07-28T01:31:32;20.00;99.90
7046;DHT22;3564;53.326;10.356;2023-07-28T01:33:58;20.00;99.90
7046;DHT22;3564;53.326;10.356;2023-07-28T01:36:27;20.00;99.90
7046;DHT22;3564;53.326;10.356;2023-07-28T01:38:52;20.00;99.90
7046;DHT22;3564;53.326;10.356;2023-07-28T01:41:22;20.00;99.90
7046;DHT22;3564;53.326;10.356;2023-07-28T01:43:47;20.00;99.90
7046;DHT22;3564;53.326;10.356;2023-07-28T01:46:13;20.00;99.90
7046;DHT22;3564;53.326;10.356;2023-07-28T01:48:41;20.00;99.90
7046;DHT22;3564;53.326;10.356;2023-07-28T01:51:10;20.00;99.90
7046;DHT22;3564;53.326;10.356;2023-07-28T01:53:35;20.10;99.90
7046;DHT22;3564;53.326;10.356;2023-07-28T01:56:01;20.10;99.90
7046;DHT22;3564;53.326;10.356;2023-07-28T01:58:27;20.00;99.90
7046;DHT22;3564;53.326;10.356;2023-07-28T02:00:52;20.00;99.90
7046;DHT22;3564;53.326;10.356;2023-07-28T02:03:18;20.00;99.90
7046;DHT22;3564;53.326;10.356;2023-07-28T02:05:43;19.90;99.90
7046;DHT22;3564;53.326;10.356;2023-07-28T02:08:10;19.90;99.90
7046;DHT22;3564;53.326;10.356;2023-07-28T02:10:35;20.00;99.90
7046;DHT22;3564;53.326;10.356;2023-07-28T02:13:01;20.00;99.90
7046;DHT22;3564;53.326;10.356;2023-07-28T02:15:29;19.90;99.90
7046;DHT22;3564;53.326;10.356;2023-07-28T02:17:55;19.90;99.90
7046;DHT22;3564;53.326;10.356;2023-07-28T02:20:21;20.00;99.90
7046;DHT22;3564;53.326;10.356;2023-07-28T02:22:46;20.00;99.90
7046;DHT22;3564;53.326;10.356;2023-07-28T02:25:12;20.00;99.90
7046;DHT22;3564;53.326;10.356;2023-07-28T02:27:38;20.00;99.90
7046;DHT22;3564;53.326;10.356;2023-07-28T02:30:05;20.00;99.90
7046;DHT22;3564;53.326;10.356;2023-07-28T02:32:31;20.00;99.90
7046;DHT22;3564;53.326;10.356;2023-07-28T02:34:57;20.00;99.90
7046;DHT22;3564;53.326;10.356;2023-07-28T02:37:25;20.00;99.90
7046;DHT22;3564;53.326;10.356;2023-07-28T02:39:51;20.00;99.90
7046;DHT22;3564;53.326;10.356;2023-07-28T02:42:16;20.00;99.90
7046;DHT22;3564;53.326;10.356;2023-07-28T02:44:45;20.00;99.90
7046;DHT22;3564;53.326;10.356;2023-07-28T02:47:10;20.00;99.90
7046;DHT22;3564;53.326;10.356;2023-07-28T02:49:36;20.00;99.90
7046;DHT22;3564;53.326;10.356;2023-07-28T02:52:01;20.00;99.90
7046;DHT22;3564;53.326;10.356;2023-07-28T02:54:28;20.00;99.90
7046;DHT22;3564;53.326;10.356;2023-07-28T02:56:54;20.00;99.90
7046;DHT22;3564;53.326;10.356;2023-07-28T02:59:21;20.00;99.90
7046;DHT22;3564;53.326;10.356;2023-07-28T03:01:46;20.00;99.90
7046;DHT22;3564;53.326;10.356;2023-07-28T03:04:12;20.00;99.90
7046;DHT22;3564;53.326;10.356;2023-07-28T03:06:37;20.00;99.90
7046;DHT22;3564;53.326;10.356;2023-07-28T03:09:06;20.00;99.90
7046;DHT22;3564;53.326;10.356;2023-07-28T03:11:31;20.00;99.90
7046;DHT22;3564;53.326;10.356;2023-07-28T03:14:03;20.00;99.90
7046;DHT22;3564;53.326;10.356;2023-07-28T03:16:28;20.10;99.90
7046;DHT22;3564;53.326;10.356;2023-07-28T03:18:54;20.10;99.90
7046;DHT22;3564;53.326;10.356;2023-07-28T03:21:20;20.00;99.90
7046;DHT22;3564;53.326;10.356;2023-07-28T03:23:45;20.00;99.90
7046;DHT22;3564;53.326;10.356;2023-07-28T03:26:11;20.00;99.90
7046;DHT22;3564;53.326;10.356;2023-07-28T03:28:36;20.00;99.90
7046;DHT22;3564;53.326;10.356;2023-07-28T03:31:02;20.00;99.90
7046;DHT22;3564;53.326;10.356;2023-07-28T03:33:27;20.00;99.90
7046;DHT22;3564;53.326;10.356;2023-07-28T03:35:53;20.00;99.90
7046;DHT22;3564;53.326;10.356;2023-07-28T03:38:21;20.00;99.90
7046;DHT22;3564;53.326;10.356;2023-07-28T03:40:50;20.00;99.90
7046;DHT22;3564;53.326;10.356;2023-07-28T03:43:16;20.00;99.90
7046;DHT22;3564;53.326;10.356;2023-07-28T03:45:41;20.00;99.90
7046;DHT22;3564;53.326;10.356;2023-07-28T03:48:07;20.10;99.90
7046;DHT22;3564;53.326;10.356;2023-07-28T03:50:33;20.10;99.90
7046;DHT22;3564;53.326;10.356;2023-07-28T03:52:58;20.10;99.90
7046;DHT22;3564;53.326;10.356;2023-07-28T03:55:24;20.10;99.90
7046;DHT22;3564;53.326;10.356;2023-07-28T03:57:49;20.10;99.90
7046;DHT22;3564;53.326;10.356;2023-07-28T04:00:15;20.10;99.90
7046;DHT22;3564;53.326;10.356;2023-07-28T04:02:43;20.10;99.90
7046;DHT22;3564;53.326;10.356;2023-07-28T04:05:09;20.10;99.90
7046;DHT22;3564;53.326;10.356;2023-07-28T04:07:35;20.10;99.90
7046;DHT22;3564;53.326;10.356;2023-07-28T04:10:00;20.10;99.90
7046;DHT22;3564;53.326;10.356;2023-07-28T04:12:29;20.00;99.90
7046;DHT22;3564;53.326;10.356;2023-07-28T04:14:54;20.10;99.90
7046;DHT22;3564;53.326;10.356;2023-07-28T04:17:23;20.10;99.90
7046;DHT22;3564;53.326;10.356;2023-07-28T04:19:48;20.10;99.90
7046;DHT22;3564;53.326;10.356;2023-07-28T04:22:14;20.10;99.90
7046;DHT22;3564;53.326;10.356;2023-07-28T04:24:43;20.10;99.90
7046;DHT22;3564;53.326;10.356;2023-07-28T04:27:12;20.00;99.90
7046;DHT22;3564;53.326;10.356;2023-07-28T04:29:38;20.00;99.90
7046;DHT22;3564;53.326;10.356;2023-07-28T04:32:07;20.00;99.90
7046;DHT22;3564;53.326;10.356;2023-07-28T04:34:35;20.00;99.90
7046;DHT22;3564;53.326;10.356;2023-07-28T04:37:01;20.00;99.90
7046;DHT22;3564;53.326;10.356;2023-07-28T04:39:27;20.00;99.90
7046;DHT22;3564;53.326;10.356;2023-07-28T04:41:52;20.00;99.90
7046;DHT22;3564;53.326;10.356;2023-07-28T04:44:18;20.00;99.90
7046;DHT22;3564;53.326;10.356;2023-07-28T04:46:45;20.00;99.90
7046;DHT22;3564;53.326;10.356;2023-07-28T04:49:13;20.10;99.90
7046;DHT22;3564;53.326;10.356;2023-07-28T04:51:39;20.10;99.90
7046;DHT22;3564;53.326;10.356;2023-07-28T04:54:04;20.10;99.90
7046;DHT22;3564;53.326;10.356;2023-07-28T04:56:33;20.10;99.90
7046;DHT22;3564;53.326;10.356;2023-07-28T04:59:01;20.10;99.90
7046;DHT22;3564;53.326;10.356;2023-07-28T05:01:27;20.10;99.90
7046;DHT22;3564;53.326;10.356;2023-07-28T05:03:52;20.10;99.90
7046;DHT22;3564;53.326;10.356;2023-07-28T05:06:18;20.10;99.90
7046;DHT22;3564;53.326;10.356;2023-07-28T05:08:43;20.10;99.90
7046;DHT22;3564;53.326;10.356;2023-07-28T05:11:12;20.20;99.90
7046;DHT22;3564;53.326;10.356;2023-07-28T05:13:38;20.20;99.90
7046;DHT22;3564;53.326;10.356;2023-07-28T05:16:12;20.20;99.90
7046;DHT22;3564;53.326;10.356;2023-07-28T05:18:38;20.20;99.90
7046;DHT22;3564;53.326;10.356;2023-07-28T05:21:03;20.20;99.90
7046;DHT22;3564;53.326;10.356;2023-07-28T05:23:29;20.20;99.90
7046;DHT22;3564;53.326;10.356;2023-07-28T05:25:55;20.20;99.90
7046;DHT22;3564;53.326;10.356;2023-07-28T05:28:20;20.20;99.90
7046;DHT22;3564;53.326;10.356;2023-07-28T05:30:49;20.20;99.90
7046;DHT22;3564;53.326;10.356;2023-07-28T05:33:14;20.20;99.90
7046;DHT22;3564;53.326;10.356;2023-07-28T05:35:40;20.30;99.90
7046;DHT22;3564;53.326;10.356;2023-07-28T05:38:05;20.30;99.90
7046;DHT22;3564;53.326;10.356;2023-07-28T05:40:31;20.30;99.90
7046;DHT22;3564;53.326;10.356;2023-07-28T05:42:57;20.40;99.90
7046;DHT22;3564;53.326;10.356;2023-07-28T05:45:22;20.40;99.90
7046;DHT22;3564;53.326;10.356;2023-07-28T05:47:48;20.40;99.90
7046;DHT22;3564;53.326;10.356;2023-07-28T05:50:13;20.50;99.90
7046;DHT22;3564;53.326;10.356;2023-07-28T05:52:39;20.50;99.90
7046;DHT22;3564;53.326;10.356;2023-07-28T05:55:05;20.50;99.90
7046;DHT22;3564;53.326;10.356;2023-07-28T05:57:31;20.60;99.90
7046;DHT22;3564;53.326;10.356;2023-07-28T05:59:59;20.60;99.90
7046;DHT22;3564;53.326;10.356;2023-07-28T06:02:24;20.60;99.90
7046;DHT22;3564;53.326;10.356;2023-07-28T06:04:53;20.60;99.90
7046;DHT22;3564;53.326;10.356;2023-07-28T06:07:19;20.60;99.90
7046;DHT22;3564;53.326;10.356;2023-07-28T06:09:44;20.60;99.90
7046;DHT22;3564;53.326;10.356;2023-07-28T06:12:10;20.70;99.90
7046;DHT22;3564;53.326;10.356;2023-07-28T06:14:35;20.70;99.90
7046;DHT22;3564;53.326;10.356;2023-07-28T06:17:01;20.80;99.90
7046;DHT22;3564;53.326;10.356;2023-07-28T06:19:26;20.80;99.90
7046;DHT22;3564;53.326;10.356;2023-07-28T06:21:52;20.80;99.90
7046;DHT22;3564;53.326;10.356;2023-07-28T06:24:18;20.80;99.90
7046;DHT22;3564;53.326;10.356;2023-07-28T06:26:43;20.90;99.90
7046;DHT22;3564;53.326;10.356;2023-07-28T06:29:09;20.80;99.90
7046;DHT22;3564;53.326;10.356;2023-07-28T06:31:35;20.90;99.90
7046;DHT22;3564;53.326;10.356;2023-07-28T06:34:00;20.90;99.90
7046;DHT22;3564;53.326;10.356;2023-07-28T06:36:26;20.90;99.90
7046;DHT22;3564;53.326;10.356;2023-07-28T06:38:52;20.90;99.90
7046;DHT22;3564;53.326;10.356;2023-07-28T06:41:20;21.00;99.90
7046;DHT22;3564;53.326;10.356;2023-07-28T06:43:46;21.00;99.90
7046;DHT22;3564;53.326;10.356;2023-07-28T06:46:16;21.00;99.90
7046;DHT22;3564;53.326;10.356;2023-07-28T06:48:42;21.10;99.90
7046;DHT22;3564;53.326;10.356;2023-07-28T06:51:07;21.00;99.90
7046;DHT22;3564;53.326;10.356;2023-07-28T06:53:33;21.10;99.90
7046;DHT22;3564;53.326;10.356;2023-07-28T06:56:00;21.10;99.90
7046;DHT22;3564;53.326;10.356;2023-07-28T06:58:25;21.10;99.90
7046;DHT22;3564;53.326;10.356;2023-07-28T07:00:53;21.20;99.90
7046;DHT22;3564;53.326;10.356;2023-07-28T07:03:21;21.20;99.90
7046;DHT22;3564;53.326;10.356;2023-07-28T07:05:47;21.20;99.90
7046;DHT22;3564;53.326;10.356;2023-07-28T07:08:15;21.30;99.90
7046;DHT22;3564;53.326;10.356;2023-07-28T07:10:50;21.30;99.90
7046;DHT22;3564;53.326;10.356;2023-07-28T07:13:19;21.30;99.90
7046;DHT22;3564;53.326;10.356;2023-07-28T07:15:45;21.40;99.90
7046;DHT22;3564;53.326;10.356;2023-07-28T07:18:11;21.40;99.90
7046;DHT22;3564;53.326;10.356;2023-07-28T07:20:38;21.40;99.90
7046;DHT22;3564;53.326;10.356;2023-07-28T07:23:04;21.50;99.90
7046;DHT22;3564;53.326;10.356;2023-07-28T07:25:30;21.50;99.90
7046;DHT22;3564;53.326;10.356;2023-07-28T07:27:56;21.50;99.90
7046;DHT22;3564;53.326;10.356;2023-07-28T07:30:22;21.60;99.90
7046;DHT22;3564;53.326;10.356;2023-07-28T07:32:47;21.60;99.90
7046;DHT22;3564;53.326;10.356;2023-07-28T07:35:13;21.60;99.90
7046;DHT22;3564;53.326;10.356;2023-07-28T07:37:39;21.70;99.90
7046;DHT22;3564;53.326;10.356;2023-07-28T07:40:06;21.70;99.90
7046;DHT22;3564;53.326;10.356;2023-07-28T07:43:02;21.70;99.90
7046;DHT22;3564;53.326;10.356;2023-07-28T07:45:29;21.70;99.90
7046;DHT22;3564;53.326;10.356;2023-07-28T07:47:55;21.70;99.90
7046;DHT22;3564;53.326;10.356;2023-07-28T07:50:20;21.70;99.90
7046;DHT22;3564;53.326;10.356;2023-07-28T07:52:49;21.70;99.90
7046;DHT22;3564;53.326;10.356;2023-07-28T07:55:15;21.80;99.90
7046;DHT22;3564;53.326;10.356;2023-07-28T07:57:41;21.80;99.90
7046;DHT22;3564;53.326;10.356;2023-07-28T08:00:07;21.80;99.90
7046;DHT22;3564;53.326;10.356;2023-07-28T08:02:34;21.80;99.90
7046;DHT22;3564;53.326;10.356;2023-07-28T08:05:00;21.90;99.90
7046;DHT22;3564;53.326;10.356;2023-07-28T08:07:25;21.90;99.90
7046;DHT22;3564;53.326;10.356;2023-07-28T08:09:51;21.90;99.90
7046;DHT22;3564;53.326;10.356;2023-07-28T08:12:17;21.90;99.90
7046;DHT22;3564;53.326;10.356;2023-07-28T08:14:43;21.90;99.90
7046;DHT22;3564;53.326;10.356;2023-07-28T08:17:09;21.90;99.90
7046;DHT22;3564;53.326;10.356;2023-07-28T08:19:35;21.90;99.90
7046;DHT22;3564;53.326;10.356;2023-07-28T08:22:01;21.90;99.90
7046;DHT22;3564;53.326;10.356;2023-07-28T08:24:29;21.90;99.90
7046;DHT22;3564;53.326;10.356;2023-07-28T08:26:55;21.90;99.90
7046;DHT22;3564;53.326;10.356;2023-07-28T08:29:20;21.90;99.90
7046;DHT22;3564;53.326;10.356;2023-07-28T08:31:46;21.90;99.90
7046;DHT22;3564;53.326;10.356;2023-07-28T08:34:12;21.80;99.90
7046;DHT22;3564;53.326;10.356;2023-07-28T08:36:38;21.80;99.90
7046;DHT22;3564;53.326;10.356;2023-07-28T08:39:04;21.80;99.90
7046;DHT22;3564;53.326;10.356;2023-07-28T08:41:36;21.80;99.90
7046;DHT22;3564;53.326;10.356;2023-07-28T08:44:02;21.80;99.90
7046;DHT22;3564;53.326;10.356;2023-07-28T08:46:28;21.80;99.90
7046;DHT22;3564;53.326;10.356;2023-07-28T08:48:54;21.80;99.90
7046;DHT22;3564;53.326;10.356;2023-07-28T08:51:25;21.80;99.90
7046;DHT22;3564;53.326;10.356;2023-07-28T08:53:53;21.80;99.90
7046;DHT22;3564;53.326;10.356;2023-07-28T08:56:20;21.80;99.90
7046;DHT22;3564;53.326;10.356;2023-07-28T08:58:46;21.80;99.90
7046;DHT22;3564;53.326;10.356;2023-07-28T09:01:12;21.80;99.90
7046;DHT22;3564;53.326;10.356;2023-07-28T09:03:40;21.70;99.90
7046;DHT22;3564;53.326;10.356;2023-07-28T09:06:07;21.70;99.90
7046;DHT22;3564;53.326;10.356;2023-07-28T09:08:36;21.70;99.90
7046;DHT22;3564;53.326;10.356;2023-07-28T09:11:05;21.80;99.90
7046;DHT22;3564;53.326;10.356;2023-07-28T09:13:39;21.80;99.90
7046;DHT22;3564;53.326;10.356;2023-07-28T09:16:21;21.80;99.90
7046;DHT22;3564;53.326;10.356;2023-07-28T09:18:48;21.80;99.90
7046;DHT22;3564;53.326;10.356;2023-07-28T09:21:21;21.90;99.90
7046;DHT22;3564;53.326;10.356;2023-07-28T09:23:47;21.90;99.90
7046;DHT22;3564;53.326;10.356;2023-07-28T09:26:16;21.90;99.90
7046;DHT22;3564;53.326;10.356;2023-07-28T09:28:42;21.90;99.90
7046;DHT22;3564;53.326;10.356;2023-07-28T09:31:08;22.00;99.90
7046;DHT22;3564;53.326;10.356;2023-07-28T09:33:36;22.00;99.90
7046;DHT22;3564;53.326;10.356;2023-07-28T09:36:13;22.10;99.90
7046;DHT22;3564;53.326;10.356;2023-07-28T09:38:44;22.10;99.90
7046;DHT22;3564;53.326;10.356;2023-07-28T09:41:10;22.10;99.90
7046;DHT22;3564;53.326;10.356;2023-07-28T09:43:37;22.20;99.90
7046;DHT22;3564;53.326;10.356;2023-07-28T09:46:08;22.20;99.90
7046;DHT22;3564;53.326;10.356;2023-07-28T09:48:34;22.20;99.90
7046;DHT22;3564;53.326;10.356;2023-07-28T09:51:04;22.30;99.90
7046;DHT22;3564;53.326;10.356;2023-07-28T09:53:33;22.30;99.90
7046;DHT22;3564;53.326;10.356;2023-07-28T09:56:04;22.30;99.90
7046;DHT22;3564;53.326;10.356;2023-07-28T09:58:33;22.40;99.90
7046;DHT22;3564;53.326;10.356;2023-07-28T10:01:00;22.40;99.90
7046;DHT22;3564;53.326;10.356;2023-07-28T10:03:26;22.50;99.90
7046;DHT22;3564;53.326;10.356;2023-07-28T10:05:55;22.50;99.90
7046;DHT22;3564;53.326;10.356;2023-07-28T10:08:24;22.60;99.90
7046;DHT22;3564;53.326;10.356;2023-07-28T10:10:50;22.60;99.90
7046;DHT22;3564;53.326;10.356;2023-07-28T10:13:23;22.60;99.90
7046;DHT22;3564;53.326;10.356;2023-07-28T10:15:50;22.60;99.90
7046;DHT22;3564;53.326;10.356;2023-07-28T10:18:15;22.70;99.90
7046;DHT22;3564;53.326;10.356;2023-07-28T10:20:42;22.70;99.90
7046;DHT22;3564;53.326;10.356;2023-07-28T10:23:17;22.80;99.90
7046;DHT22;3564;53.326;10.356;2023-07-28T10:25:45;22.80;99.90
7046;DHT22;3564;53.326;10.356;2023-07-28T10:28:35;22.80;99.90
7046;DHT22;3564;53.326;10.356;2023-07-28T10:31:05;22.90;99.90
7046;DHT22;3564;53.326;10.356;2023-07-28T10:39:17;23.00;99.90
7046;DHT22;3564;53.326;10.356;2023-07-28T10:42:04;23.00;99.90
7046;DHT22;3564;53.326;10.356;2023-07-28T10:44:30;23.00;99.90
7046;DHT22;3564;53.326;10.356;2023-07-28T10:46:56;23.00;99.90
7046;DHT22;3564;53.326;10.356;2023-07-28T10:49:22;23.00;99.90
7046;DHT22;3564;53.326;10.356;2023-07-28T10:51:49;23.10;99.90
7046;DHT22;3564;53.326;10.356;2023-07-28T10:54:15;23.20;99.90
7046;DHT22;3564;53.326;10.356;2023-07-28T10:56:44;23.20;99.90
7046;DHT22;3564;53.326;10.356;2023-07-28T10:59:09;23.30;99.90
7046;DHT22;3564;53.326;10.356;2023-07-28T11:01:40;23.30;99.90
7046;DHT22;3564;53.326;10.356;2023-07-28T11:04:14;23.40;99.90
7046;DHT22;3564;53.326;10.356;2023-07-28T11:06:47;23.40;99.90
7046;DHT22;3564;53.326;10.356;2023-07-28T11:09:16;23.50;99.90
7046;DHT22;3564;53.326;10.356;2023-07-28T11:11:42;23.50;99.90
7046;DHT22;3564;53.326;10.356;2023-07-28T11:14:09;23.60;99.90
7046;DHT22;3564;53.326;10.356;2023-07-28T11:16:41;23.70;99.90
7046;DHT22;3564;53.326;10.356;2023-07-28T11:19:11;23.80;99.90
7046;DHT22;3564;53.326;10.356;2023-07-28T11:21:38;23.90;99.90
7046;DHT22;3564;53.326;10.356;2023-07-28T11:24:04;23.90;99.90
7046;DHT22;3564;53.326;10.356;2023-07-28T11:26:31;24.00;99.90
7046;DHT22;3564;53.326;10.356;2023-07-28T11:28:59;24.00;99.90
7046;DHT22;3564;53.326;10.356;2023-07-28T11:31:25;24.20;99.90
7046;DHT22;3564;53.326;10.356;2023-07-28T11:33:51;24.20;99.90
7046;DHT22;3564;53.326;10.356;2023-07-28T11:36:28;24.20;99.90
7046;DHT22;3564;53.326;10.356;2023-07-28T11:38:59;24.20;99.90
7046;DHT22;3564;53.326;10.356;2023-07-28T11:41:25;24.20;99.90
7046;DHT22;3564;53.326;10.356;2023-07-28T11:43:52;24.20;99.90
7046;DHT22;3564;53.326;10.356;2023-07-28T11:46:40;24.20;99.90
7046;DHT22;3564;53.326;10.356;2023-07-28T11:49:18;24.10;99.90
7046;DHT22;3564;53.326;10.356;2023-07-28T11:51:54;24.00;99.90
7046;DHT22;3564;53.326;10.356;2023-07-28T11:54:25;24.00;99.90
7046;DHT22;3564;53.326;10.356;2023-07-28T11:56:55;24.00;99.90
7046;DHT22;3564;53.326;10.356;2023-07-28T11:59:21;23.90;99.90
7046;DHT22;3564;53.326;10.356;2023-07-28T12:02:01;23.90;99.90
7046;DHT22;3564;53.326;10.356;2023-07-28T12:04:29;23.90;99.90
7046;DHT22;3564;53.326;10.356;2023-07-28T12:07:11;23.90;99.90
7046;DHT22;3564;53.326;10.356;2023-07-28T12:12:12;23.80;99.90
7046;DHT22;3564;53.326;10.356;2023-07-28T12:14:38;23.80;99.90
7046;DHT22;3564;53.326;10.356;2023-07-28T12:17:16;23.90;99.90
7046;DHT22;3564;53.326;10.356;2023-07-28T12:20:03;24.00;99.90
7046;DHT22;3564;53.326;10.356;2023-07-28T12:22:39;24.10;99.90
7046;DHT22;3564;53.326;10.356;2023-07-28T12:25:09;24.20;99.90
7046;DHT22;3564;53.326;10.356;2023-07-28T12:27:35;24.20;99.90
7046;DHT22;3564;53.326;10.356;2023-07-28T12:30:01;24.20;99.90
7046;DHT22;3564;53.326;10.356;2023-07-28T12:32:30;24.30;99.90
7046;DHT22;3564;53.326;10.356;2023-07-28T12:34:55;24.40;99.90
7046;DHT22;3564;53.326;10.356;2023-07-28T12:37:24;24.40;99.90
7046;DHT22;3564;53.326;10.356;2023-07-28T12:39:49;24.40;99.90
7046;DHT22;3564;53.326;10.356;2023-07-28T12:42:18;24.40;99.90
7046;DHT22;3564;53.326;10.356;2023-07-28T12:44:45;24.50;99.90
7046;DHT22;3564;53.326;10.356;2023-07-28T12:47:10;24.40;99.90
7046;DHT22;3564;53.326;10.356;2023-07-28T12:49:36;24.40;99.90
7046;DHT22;3564;53.326;10.356;2023-07-28T12:52:04;24.40;99.90
7046;DHT22;3564;53.326;10.356;2023-07-28T12:54:35;24.40;99.90
7046;DHT22;3564;53.326;10.356;2023-07-28T12:57:01;24.40;99.90
7046;DHT22;3564;53.326;10.356;2023-07-28T12:59:27;24.40;99.90
7046;DHT22;3564;53.326;10.356;2023-07-28T13:01:54;24.40;99.90
7046;DHT22;3564;53.326;10.356;2023-07-28T13:04:19;24.20;99.90
7046;DHT22;3564;53.326;10.356;2023-07-28T13:06:45;24.30;99.90
7046;DHT22;3564;53.326;10.356;2023-07-28T13:09:10;24.20;99.90
7046;DHT22;3564;53.326;10.356;2023-07-28T13:11:39;24.20;99.90
7046;DHT22;3564;53.326;10.356;2023-07-28T13:14:05;24.30;99.90
7046;DHT22;3564;53.326;10.356;2023-07-28T13:16:33;24.30;99.90
7046;DHT22;3564;53.326;10.356;2023-07-28T13:18:59;24.40;99.90
7046;DHT22;3564;53.326;10.356;2023-07-28T13:21:25;24.40;99.90
7046;DHT22;3564;53.326;10.356;2023-07-28T13:23:50;24.40;99.90
7046;DHT22;3564;53.326;10.356;2023-07-28T13:26:16;24.30;99.90
7046;DHT22;3564;53.326;10.356;2023-07-28T13:28:42;24.30;99.90
7046;DHT22;3564;53.326;10.356;2023-07-28T13:31:12;24.40;99.90
7046;DHT22;3564;53.326;10.356;2023-07-28T13:33:41;24.40;99.90
7046;DHT22;3564;53.326;10.356;2023-07-28T13:36:07;24.50;99.90
7046;DHT22;3564;53.326;10.356;2023-07-28T13:38:33;24.60;99.90
7046;DHT22;3564;53.326;10.356;2023-07-28T13:40:59;24.60;99.90
7046;DHT22;3564;53.326;10.356;2023-07-28T13:43:24;24.60;99.90
7046;DHT22;3564;53.326;10.356;2023-07-28T13:45:50;24.70;99.90
7046;DHT22;3564;53.326;10.356;2023-07-28T13:48:16;24.60;99.90
7046;DHT22;3564;53.326;10.356;2023-07-28T13:50:41;24.60;99.90
7046;DHT22;3564;53.326;10.356;2023-07-28T13:53:07;24.60;99.90
7046;DHT22;3564;53.326;10.356;2023-07-28T13:55:33;24.60;99.90
7046;DHT22;3564;53.326;10.356;2023-07-28T13:57:58;24.60;99.90
7046;DHT22;3564;53.326;10.356;2023-07-28T14:00:24;24.60;99.90
7046;DHT22;3564;53.326;10.356;2023-07-28T14:02:49;24.70;99.90
7046;DHT22;3564;53.326;10.356;2023-07-28T14:05:15;24.60;99.90
7046;DHT22;3564;53.326;10.356;2023-07-28T14:07:41;24.60;99.90
7046;DHT22;3564;53.326;10.356;2023-07-28T14:10:07;24.60;99.90
7046;DHT22;3564;53.326;10.356;2023-07-28T14:12:33;24.60;99.90
7046;DHT22;3564;53.326;10.356;2023-07-28T14:14:58;24.60;99.90
7046;DHT22;3564;53.326;10.356;2023-07-28T14:17:24;24.60;99.90
7046;DHT22;3564;53.326;10.356;2023-07-28T14:19:49;24.60;99.90
7046;DHT22;3564;53.326;10.356;2023-07-28T14:22:18;24.60;99.90
7046;DHT22;3564;53.326;10.356;2023-07-28T14:24:43;24.60;99.90
7046;DHT22;3564;53.326;10.356;2023-07-28T14:27:09;24.60;99.90
7046;DHT22;3564;53.326;10.356;2023-07-28T14:29:35;24.50;99.90
7046;DHT22;3564;53.326;10.356;2023-07-28T14:32:00;24.40;99.90
7046;DHT22;3564;53.326;10.356;2023-07-28T14:34:26;24.30;99.90
7046;DHT22;3564;53.326;10.356;2023-07-28T14:36:52;24.30;99.90
7046;DHT22;3564;53.326;10.356;2023-07-28T14:39:17;24.20;99.90
7046;DHT22;3564;53.326;10.356;2023-07-28T14:41:43;24.20;99.90
7046;DHT22;3564;53.326;10.356;2023-07-28T14:44:08;24.30;99.90
7046;DHT22;3564;53.326;10.356;2023-07-28T14:46:34;24.60;99.90
7046;DHT22;3564;53.326;10.356;2023-07-28T14:49:00;24.70;99.90
7046;DHT22;3564;53.326;10.356;2023-07-28T14:51:25;24.80;99.90
7046;DHT22;3564;53.326;10.356;2023-07-28T14:53:51;24.80;99.90
7046;DHT22;3564;53.326;10.356;2023-07-28T14:56:17;24.90;99.90
7046;DHT22;3564;53.326;10.356;2023-07-28T14:58:43;25.20;99.90
7046;DHT22;3564;53.326;10.356;2023-07-28T15:01:12;25.50;99.90
7046;DHT22;3564;53.326;10.356;2023-07-28T15:03:38;25.90;99.90
7046;DHT22;3564;53.326;10.356;2023-07-28T15:06:05;26.40;99.90
7046;DHT22;3564;53.326;10.356;2023-07-28T15:08:30;26.80;99.90
7046;DHT22;3564;53.326;10.356;2023-07-28T15:10:57;27.20;99.90
7046;DHT22;3564;53.326;10.356;2023-07-28T15:13:23;27.60;99.90
7046;DHT22;3564;53.326;10.356;2023-07-28T15:15:49;28.00;99.90
7046;DHT22;3564;53.326;10.356;2023-07-28T15:18:15;28.40;99.90
7046;DHT22;3564;53.326;10.356;2023-07-28T15:20:41;28.80;99.90
7046;DHT22;3564;53.326;10.356;2023-07-28T15:23:07;29.10;99.90
7046;DHT22;3564;53.326;10.356;2023-07-28T15:25:36;29.40;99.90
7046;DHT22;3564;53.326;10.356;2023-07-28T15:28:12;29.70;99.90
7046;DHT22;3564;53.326;10.356;2023-07-28T15:30:38;30.00;99.90
7046;DHT22;3564;53.326;10.356;2023-07-28T15:33:04;30.20;98.60
7046;DHT22;3564;53.326;10.356;2023-07-28T15:35:30;30.40;98.50
7046;DHT22;3564;53.326;10.356;2023-07-28T15:37:55;30.50;98.40
7046;DHT22;3564;53.326;10.356;2023-07-28T15:40:21;30.60;98.00
7046;DHT22;3564;53.326;10.356;2023-07-28T15:42:46;30.50;97.20
7046;DHT22;3564;53.326;10.356;2023-07-28T15:45:13;30.40;97.60
7046;DHT22;3564;53.326;10.356;2023-07-28T15:47:38;30.20;97.50
7046;DHT22;3564;53.326;10.356;2023-07-28T15:50:04;29.90;97.70
7046;DHT22;3564;53.326;10.356;2023-07-28T15:52:33;29.90;97.90
7046;DHT22;3564;53.326;10.356;2023-07-28T15:54:59;29.90;97.60